createdAt,value
2018-09-12T04:41:36.900Z,15.83
2018-09-12T04:42:36.947Z,15.93
2018-09-12T04:43:36.870Z,15.93
2018-09-12T04:44:36.854Z,16.02
2018-09-12T04:45:36.837Z,16.02
2018-09-12T04:46:36.824Z,16.12
2018-09-12T04:47:36.809Z,16.15
2018-09-12T04:48:36.833Z,16.15
2018-09-12T04:49:36.770Z,16.21
2018-09-12T04:50:36.752Z,16.24
2018-09-12T04:51:36.736Z,16.21
2018-09-12T04:52:36.721Z,16.17
2018-09-12T04:53:36.701Z,16.21
2018-09-12T04:54:36.687Z,16.23
2018-09-12T04:55:36.672Z,16.15
2018-09-12T04:56:36.655Z,16.23
2018-09-12T04:57:36.639Z,16.17
2018-09-12T04:58:36.620Z,16.27
2018-09-12T04:59:36.639Z,16.20
2018-09-12T05:00:36.588Z,16.24
2018-09-12T05:01:36.570Z,16.17
2018-09-12T05:02:36.557Z,16.20
2018-09-12T05:03:36.543Z,16.11
2018-09-12T05:04:36.526Z,16.17
2018-09-12T05:05:36.504Z,16.14
2018-09-12T05:06:36.488Z,16.09
2018-09-12T05:07:36.472Z,16.12
2018-09-12T05:08:36.455Z,16.08
2018-09-12T05:09:36.437Z,16.05
2018-09-12T05:10:36.421Z,16.09
2018-09-12T05:11:36.405Z,16.04
2018-09-12T05:12:36.391Z,16.05
2018-09-12T05:13:36.373Z,16.12
2018-09-12T05:14:36.366Z,16.14
2018-09-12T05:15:36.340Z,16.04
2018-09-12T05:16:36.354Z,16.07
2018-09-12T05:17:36.311Z,16.09
2018-09-12T05:18:36.289Z,16.08
2018-09-12T05:19:36.274Z,16.00
2018-09-12T05:20:36.255Z,16.04
2018-09-12T05:21:36.242Z,16.12
2018-09-12T05:22:36.227Z,16.12
2018-09-12T05:23:36.209Z,16.12
2018-09-12T05:24:36.196Z,16.11
2018-09-12T05:25:36.177Z,16.17
2018-09-12T05:26:36.160Z,16.17
2018-09-12T05:27:36.144Z,16.07
2018-09-12T05:28:36.257Z,16.27
2018-09-12T05:29:36.111Z,16.17
2018-09-12T05:30:36.106Z,16.24
2018-09-12T05:31:36.077Z,16.24
2018-09-12T05:32:36.062Z,16.28
2018-09-12T05:33:36.047Z,16.27
2018-09-12T05:34:36.037Z,16.25
2018-09-12T05:35:36.012Z,16.38
2018-09-12T05:36:35.998Z,16.45
2018-09-12T05:37:35.980Z,16.46
2018-09-12T05:38:35.975Z,16.45
2018-09-12T05:39:35.951Z,16.50
2018-09-12T05:40:35.928Z,16.63
2018-09-12T05:41:35.914Z,16.71
2018-09-12T05:42:35.898Z,16.83
2018-09-12T05:43:35.883Z,16.83
2018-09-12T05:44:35.865Z,16.94
2018-09-12T05:45:35.848Z,17.16
2018-09-12T05:46:35.833Z,17.18
2018-09-12T05:47:35.830Z,17.28
2018-09-12T05:48:35.801Z,17.31
2018-09-12T05:49:35.784Z,17.33
2018-09-12T05:50:35.768Z,17.41
2018-09-12T05:51:35.750Z,17.43
2018-09-12T05:52:35.737Z,17.51
2018-09-12T05:53:35.721Z,17.44
2018-09-12T05:54:35.703Z,17.63
2018-09-12T05:55:35.686Z,17.68
2018-09-12T05:56:35.675Z,17.63
2018-09-12T05:57:35.656Z,17.58
2018-09-12T05:58:35.651Z,17.72
2018-09-12T05:59:35.634Z,17.71
2018-09-12T06:00:35.608Z,17.74
2018-09-12T06:01:35.592Z,17.89
2018-09-12T06:02:35.576Z,17.95
2018-09-12T06:03:35.560Z,18.05
2018-09-12T06:04:35.542Z,18.12
2018-09-12T06:05:35.530Z,18.21
2018-09-12T06:06:35.674Z,18.27
2018-09-12T06:07:35.494Z,18.41
2018-09-12T06:08:35.479Z,18.42
2018-09-12T06:09:35.465Z,18.52
2018-09-12T06:10:35.448Z,18.70
2018-09-12T06:11:35.433Z,18.73
2018-09-12T06:12:35.416Z,18.90
2018-09-12T06:13:35.401Z,18.90
2018-09-12T06:14:35.385Z,18.95
2018-09-12T06:15:35.369Z,19.04
2018-09-12T06:16:35.353Z,19.13
2018-09-12T06:17:35.342Z,19.13
2018-09-12T06:18:35.323Z,19.23
2018-09-12T06:19:35.310Z,19.16
2018-09-12T06:20:35.289Z,19.31
2018-09-12T06:21:35.277Z,19.39
2018-09-12T06:22:35.265Z,19.36
2018-09-12T06:23:35.243Z,19.43
2018-09-12T06:24:35.234Z,19.47
2018-09-12T06:25:35.214Z,19.56
2018-09-12T06:26:35.197Z,19.61
2018-09-12T06:27:35.184Z,19.71
2018-09-12T06:28:35.167Z,19.83
2018-09-12T06:29:35.152Z,19.83
2018-09-12T06:30:35.189Z,19.99
2018-09-12T06:31:35.123Z,19.95
2018-09-12T06:32:35.104Z,20.08
2018-09-12T06:33:35.102Z,20.11
2018-09-12T06:34:35.078Z,20.21
2018-09-12T06:35:35.059Z,20.26
2018-09-12T06:36:35.046Z,20.33
2018-09-12T06:37:35.030Z,20.41
2018-09-12T06:38:35.017Z,20.42
2018-09-12T06:39:35.004Z,20.50
2018-09-12T06:40:34.992Z,20.66
2018-09-12T06:41:34.968Z,20.72
2018-09-12T06:42:34.954Z,20.70
2018-09-12T06:43:34.940Z,20.87
2018-09-12T06:44:34.985Z,20.91
2018-09-12T06:45:34.913Z,20.97
2018-09-12T06:46:34.895Z,21.06
2018-09-12T06:47:34.880Z,21.13
2018-09-12T06:48:34.870Z,21.14
2018-09-12T06:49:34.850Z,21.21
2018-09-12T06:50:34.836Z,21.37
2018-09-12T06:51:34.823Z,21.42
2018-09-12T06:52:34.811Z,21.46
2018-09-12T06:53:34.792Z,21.59
2018-09-12T06:54:34.814Z,21.71
2018-09-12T06:55:34.768Z,21.82
2018-09-12T06:56:34.750Z,21.86
2018-09-12T06:57:34.734Z,21.94
2018-09-12T06:58:34.722Z,22.09
2018-09-12T06:59:34.708Z,22.18
2018-09-12T07:00:34.718Z,22.36
2018-09-12T07:01:34.678Z,22.49
2018-09-12T07:02:34.666Z,22.76
2018-09-12T07:03:34.653Z,23.25
2018-09-12T07:04:34.638Z,23.88
2018-09-12T07:05:34.624Z,24.58
2018-09-12T07:06:34.611Z,25.25
2018-09-12T07:07:34.602Z,25.88
2018-09-12T07:08:34.583Z,26.40
2018-09-12T07:09:34.572Z,26.92
2018-09-12T07:10:34.558Z,27.63
2018-09-12T07:11:34.543Z,28.34
2018-09-12T07:12:34.532Z,28.61
2018-09-12T07:13:34.520Z,29.04
2018-09-12T07:14:34.508Z,29.42
2018-09-12T07:15:34.496Z,29.67
2018-09-12T07:16:34.484Z,29.74
2018-09-12T07:17:34.473Z,30.05
2018-09-12T07:18:34.462Z,30.51
2018-09-12T07:19:34.508Z,31.02
2018-09-12T07:20:34.440Z,31.23
2018-09-12T07:21:34.428Z,31.26
2018-09-12T07:22:34.417Z,31.50
2018-09-12T07:23:34.407Z,31.32
2018-09-12T07:24:34.491Z,31.50
2018-09-12T07:25:34.387Z,31.65
2018-09-12T07:26:34.377Z,32.04
2018-09-12T07:27:34.418Z,32.25
2018-09-12T07:28:34.358Z,32.74
2018-09-12T07:29:34.353Z,32.84
2018-09-12T07:30:34.387Z,32.67
2018-09-12T07:31:34.334Z,32.26
2018-09-12T07:32:34.322Z,32.14
2018-09-12T07:33:34.313Z,32.41
2018-09-12T07:34:34.306Z,32.56
2018-09-12T07:35:34.298Z,32.81
2018-09-12T07:36:34.293Z,33.29
2018-09-12T07:37:34.284Z,33.42
2018-09-12T07:38:34.284Z,33.81
2018-09-12T07:39:34.272Z,34.17
2018-09-12T07:40:34.268Z,34.43
2018-09-12T07:41:34.270Z,34.59
2018-09-12T07:42:34.260Z,34.50
2018-09-12T07:43:34.242Z,34.25
2018-09-12T07:44:34.236Z,34.44
2018-09-12T07:45:34.232Z,34.15
2018-09-12T07:46:34.226Z,34.52
2018-09-12T07:47:34.218Z,35.15
2018-09-12T07:48:34.221Z,35.47
2018-09-12T07:49:34.205Z,36.08
2018-09-12T07:50:34.201Z,36.38
2018-09-12T07:51:34.196Z,36.94
2018-09-12T07:52:34.188Z,36.72
2018-09-12T07:53:34.183Z,36.57
2018-09-12T07:54:34.179Z,36.35
2018-09-12T07:55:34.191Z,36.38
2018-09-12T07:56:34.173Z,36.69
2018-09-12T07:57:34.162Z,37.03
2018-09-12T07:58:34.158Z,37.59
2018-09-12T07:59:34.153Z,38.19
2018-09-12T08:00:34.219Z,38.34
2018-09-12T08:01:34.143Z,37.97
2018-09-12T08:02:34.139Z,38.47
2018-09-12T08:03:34.136Z,38.59
2018-09-12T08:04:34.128Z,38.66
2018-09-12T08:05:34.128Z,38.96
2018-09-12T08:06:34.119Z,39.38
2018-09-12T08:07:34.115Z,39.50
2018-09-12T08:08:34.110Z,39.82
2018-09-12T08:09:34.106Z,39.98
2018-09-12T08:10:34.103Z,40.19
2018-09-12T08:11:34.100Z,39.82
2018-09-12T08:12:34.093Z,39.52
2018-09-12T08:13:34.091Z,40.00
2018-09-12T08:14:34.087Z,39.86
2018-09-12T08:15:34.085Z,39.92
2018-09-12T08:16:34.078Z,39.60
2018-09-12T08:17:34.080Z,39.36
2018-09-12T08:18:34.071Z,39.09
2018-09-12T08:19:34.068Z,39.22
2018-09-12T08:20:34.061Z,38.93
2018-09-12T08:21:34.061Z,39.33
2018-09-12T08:22:34.055Z,39.11
2018-09-12T08:23:34.056Z,39.22
2018-09-12T08:24:34.048Z,38.90
2018-09-12T08:25:34.053Z,39.36
2018-09-12T08:26:34.084Z,39.89
2018-09-12T08:27:34.040Z,40.08
2018-09-12T08:28:34.037Z,40.45
2018-09-12T08:29:34.040Z,39.81
2018-09-12T08:30:34.030Z,38.53
2018-09-12T08:31:34.032Z,37.88
2018-09-12T08:32:34.023Z,36.72
2018-09-12T08:33:34.019Z,35.85
2018-09-12T08:34:34.023Z,35.65
2018-09-12T08:35:34.017Z,35.26
2018-09-12T08:36:34.091Z,34.96
2018-09-12T08:37:34.012Z,35.10
2018-09-12T08:38:34.007Z,35.34
2018-09-12T08:39:34.005Z,36.25
2018-09-12T08:40:34.004Z,37.03
2018-09-12T08:41:33.994Z,37.36
2018-09-12T08:42:34.052Z,37.88
2018-09-12T08:43:33.988Z,38.52
2018-09-12T08:44:33.985Z,38.75
2018-09-12T08:45:33.983Z,39.03
2018-09-12T08:46:33.981Z,39.03
2018-09-12T08:47:33.980Z,39.03
2018-09-12T08:48:33.978Z,38.53
2018-09-12T08:49:33.970Z,37.27
2018-09-12T08:50:33.972Z,36.51
2018-09-12T08:51:33.967Z,35.87
2018-09-12T08:52:33.962Z,35.04
2018-09-12T08:53:33.957Z,33.75
2018-09-12T08:54:33.956Z,32.96
2018-09-12T08:55:33.954Z,32.59
2018-09-12T08:56:33.959Z,32.32
2018-09-12T08:57:33.948Z,32.11
2018-09-12T08:58:33.943Z,31.99
2018-09-12T08:59:33.938Z,31.78
2018-09-12T09:00:33.936Z,31.47
2018-09-12T09:01:33.969Z,31.35
2018-09-12T09:02:33.932Z,31.66
2018-09-12T09:03:33.926Z,31.58
2018-09-12T09:04:33.921Z,31.65
2018-09-12T09:05:33.920Z,31.88
2018-09-12T09:06:33.913Z,31.84
2018-09-12T09:07:33.909Z,32.29
2018-09-12T09:08:33.913Z,32.45
2018-09-12T09:09:33.905Z,32.38
2018-09-12T09:10:33.971Z,32.33
2018-09-12T09:11:33.893Z,32.45
2018-09-12T09:12:33.889Z,32.28
2018-09-12T09:13:33.895Z,32.21
2018-09-12T09:14:33.880Z,32.65
2018-09-12T09:15:33.876Z,32.52
2018-09-12T09:16:33.870Z,32.29
2018-09-12T09:17:33.867Z,32.18
2018-09-12T09:18:33.862Z,32.04
2018-09-12T09:19:33.857Z,32.26
2018-09-12T09:20:33.852Z,32.29
2018-09-12T09:21:33.849Z,32.30
2018-09-12T09:22:33.843Z,32.69
2018-09-12T09:23:33.860Z,32.74
2018-09-12T09:24:33.837Z,32.40
2018-09-12T09:25:33.835Z,32.57
2018-09-12T09:26:33.827Z,32.15
2018-09-12T09:27:33.823Z,33.16
2018-09-12T09:28:33.817Z,33.81
2018-09-12T09:29:33.818Z,34.31
2018-09-12T09:30:33.811Z,34.78
2018-09-12T09:31:33.804Z,35.43
2018-09-12T09:32:33.836Z,35.70
2018-09-12T09:33:33.795Z,35.36
2018-09-12T09:34:33.792Z,35.07
2018-09-12T09:35:33.934Z,34.21
2018-09-12T09:36:33.782Z,33.91
2018-09-12T09:37:33.779Z,34.70
2018-09-12T09:38:33.776Z,34.65
2018-09-12T09:39:33.774Z,35.40
2018-09-12T09:40:33.763Z,36.01
2018-09-12T09:41:33.761Z,36.51
2018-09-12T09:42:33.759Z,36.20
2018-09-12T09:43:33.756Z,36.07
2018-09-12T09:44:33.752Z,35.74
2018-09-12T09:45:33.748Z,35.19
2018-09-12T09:46:33.744Z,34.35
2018-09-12T09:47:33.741Z,33.84
2018-09-12T09:48:33.736Z,34.06
2018-09-12T09:49:33.734Z,33.82
2018-09-12T09:50:33.729Z,33.50
2018-09-12T09:51:33.726Z,33.15
2018-09-12T09:52:33.725Z,32.92
2018-09-12T09:53:33.717Z,32.48
2018-09-12T09:54:33.737Z,32.57
2018-09-12T09:55:33.711Z,32.55
2018-09-12T09:56:33.707Z,32.55
2018-09-12T09:57:33.701Z,32.69
2018-09-12T09:58:33.699Z,32.63
2018-09-12T09:59:33.699Z,32.67
2018-09-12T10:00:33.696Z,32.26
2018-09-12T10:01:33.689Z,31.99
2018-09-12T10:02:33.683Z,31.50
2018-09-12T10:03:33.681Z,31.17
2018-09-12T10:04:33.677Z,31.02
2018-09-12T10:05:33.672Z,31.09
2018-09-12T10:06:33.666Z,30.70
2018-09-12T10:07:33.662Z,30.47
2018-09-12T10:08:33.658Z,30.35
2018-09-12T10:09:33.653Z,30.31
2018-09-12T10:10:33.651Z,30.38
2018-09-12T10:11:33.650Z,30.39
2018-09-12T10:12:33.643Z,30.65
2018-09-12T10:13:33.639Z,30.77
2018-09-12T10:14:33.632Z,30.88
2018-09-12T10:15:33.626Z,30.79
2018-09-12T10:16:33.621Z,30.64
2018-09-12T10:17:33.615Z,30.49
2018-09-12T10:18:33.619Z,30.37
2018-09-12T10:19:33.606Z,30.64
2018-09-12T10:20:33.603Z,30.26
2018-09-12T10:21:33.595Z,30.61
2018-09-12T10:22:33.590Z,31.28
2018-09-12T10:23:33.621Z,31.26
2018-09-12T10:24:33.582Z,31.62
2018-09-12T10:25:33.578Z,31.66
2018-09-12T10:26:33.570Z,32.37
2018-09-12T10:27:33.570Z,32.32
2018-09-12T10:28:33.560Z,32.56
2018-09-12T10:29:33.559Z,32.60
2018-09-12T10:30:33.553Z,32.13
2018-09-12T10:31:33.548Z,31.95
2018-09-12T10:32:33.544Z,32.01
2018-09-12T10:33:33.535Z,32.41
2018-09-12T10:34:33.531Z,33.38
2018-09-12T10:35:33.526Z,34.19
2018-09-12T10:36:33.524Z,34.52
2018-09-12T10:37:33.517Z,34.92
2018-09-12T10:38:33.518Z,35.41
2018-09-12T10:39:33.510Z,35.68
2018-09-12T10:40:33.505Z,35.81
2018-09-12T10:41:33.498Z,36.08
2018-09-12T10:42:33.496Z,35.70
2018-09-12T10:43:33.491Z,34.91
2018-09-12T10:44:33.489Z,34.65
2018-09-12T10:45:33.481Z,33.78
2018-09-12T10:46:33.477Z,33.47
2018-09-12T10:47:33.474Z,32.97
2018-09-12T10:48:33.469Z,32.97
2018-09-12T10:49:33.465Z,34.17
2018-09-12T10:50:33.461Z,34.22
2018-09-12T10:51:33.458Z,33.68
2018-09-12T10:52:33.452Z,33.57
2018-09-12T10:53:33.451Z,32.67
2018-09-12T10:54:33.446Z,32.77
2018-09-12T10:55:33.440Z,32.74
2018-09-12T10:56:33.440Z,32.32
2018-09-12T10:57:33.433Z,32.11
2018-09-12T10:58:33.428Z,32.30
2018-09-12T10:59:33.422Z,32.37
2018-09-12T11:00:33.420Z,32.18
2018-09-12T11:01:33.418Z,32.13
2018-09-12T11:02:33.416Z,31.92
2018-09-12T11:03:33.406Z,32.59
2018-09-12T11:04:33.404Z,33.69
2018-09-12T11:05:33.397Z,33.61
2018-09-12T11:06:33.395Z,33.91
2018-09-12T11:07:33.398Z,33.78
2018-09-12T11:08:33.386Z,33.91
2018-09-12T11:09:33.382Z,34.06
2018-09-12T11:10:33.381Z,34.64
2018-09-12T11:11:33.375Z,34.54
2018-09-12T11:12:33.379Z,34.35
2018-09-12T11:13:33.373Z,34.75
2018-09-12T11:14:33.362Z,34.91
2018-09-12T11:15:33.357Z,35.47
2018-09-12T11:16:33.358Z,35.74
2018-09-12T11:17:33.350Z,35.26
2018-09-12T11:18:33.344Z,35.18
2018-09-12T11:19:33.343Z,34.49
2018-09-12T11:20:33.340Z,33.86
2018-09-12T11:21:33.334Z,33.63
2018-09-12T11:22:33.331Z,34.35
2018-09-12T11:23:33.326Z,35.25
2018-09-12T11:24:33.322Z,35.25
2018-09-12T11:25:33.317Z,34.69
2018-09-12T11:26:33.312Z,34.00
2018-09-12T11:27:33.309Z,33.06
2018-09-12T11:28:33.309Z,32.74
2018-09-12T11:29:33.303Z,32.55
2018-09-12T11:30:33.298Z,32.44
2018-09-12T11:31:33.294Z,33.35
2018-09-12T11:32:33.288Z,34.34
2018-09-12T11:33:33.288Z,35.00
2018-09-12T11:34:33.284Z,35.81
2018-09-12T11:35:33.278Z,36.59
2018-09-12T11:36:33.274Z,37.06
2018-09-12T11:37:33.277Z,37.56
2018-09-12T11:38:33.264Z,36.84
2018-09-12T11:39:33.265Z,36.34
2018-09-12T11:40:33.271Z,35.48
2018-09-12T11:41:33.265Z,35.40
2018-09-12T11:42:33.257Z,35.22
2018-09-12T11:43:33.259Z,35.23
2018-09-12T11:44:33.246Z,34.49
2018-09-12T11:45:33.251Z,34.25
2018-09-12T11:46:33.238Z,34.56
2018-09-12T11:47:33.240Z,35.70
2018-09-12T11:48:33.237Z,36.43
2018-09-12T11:49:33.228Z,35.40
2018-09-12T11:50:33.226Z,34.47
2018-09-12T11:51:33.225Z,34.28
2018-09-12T11:52:33.219Z,33.87
2018-09-12T11:53:33.216Z,33.78
2018-09-12T11:54:33.214Z,34.21
2018-09-12T11:55:33.222Z,34.03
2018-09-12T11:56:33.207Z,33.75
2018-09-12T11:57:33.202Z,33.29
2018-09-12T11:58:33.205Z,32.97
2018-09-12T11:59:33.196Z,32.72
2018-09-12T12:00:33.194Z,32.96
2018-09-12T12:01:33.189Z,34.16
2018-09-12T12:02:33.188Z,33.84
2018-09-12T12:03:33.182Z,33.34
2018-09-12T12:04:33.174Z,32.89
2018-09-12T12:05:33.174Z,33.79
2018-09-12T12:06:33.170Z,34.24
2018-09-12T12:07:33.166Z,33.91
2018-09-12T12:08:33.167Z,35.03
2018-09-12T12:09:33.157Z,35.65
2018-09-12T12:10:33.161Z,36.35
2018-09-12T12:11:33.151Z,36.53
2018-09-12T12:12:33.148Z,36.83
2018-09-12T12:13:33.144Z,36.68
2018-09-12T12:14:33.145Z,37.70
2018-09-12T12:15:33.136Z,36.47
2018-09-12T12:16:33.192Z,35.66
2018-09-12T12:17:33.132Z,35.14
2018-09-12T12:18:33.127Z,34.52
2018-09-12T12:19:33.125Z,34.37
2018-09-12T12:20:33.122Z,33.94
2018-09-12T12:21:33.119Z,33.73
2018-09-12T12:22:33.116Z,34.22
2018-09-12T12:23:33.162Z,34.89
2018-09-12T12:24:33.107Z,35.68
2018-09-12T12:25:33.106Z,36.22
2018-09-12T12:26:33.100Z,36.81
2018-09-12T12:27:33.097Z,36.85
2018-09-12T12:28:33.094Z,37.20
2018-09-12T12:29:33.094Z,37.46
2018-09-12T12:30:33.091Z,37.34
2018-09-12T12:31:33.085Z,37.31
2018-09-12T12:32:33.079Z,37.24
2018-09-12T12:33:33.078Z,37.24
2018-09-12T12:34:33.073Z,37.40
2018-09-12T12:35:33.192Z,37.47
2018-09-12T12:36:33.068Z,36.60
2018-09-12T12:37:33.063Z,36.39
2018-09-12T12:38:33.065Z,35.84
2018-09-12T12:39:33.056Z,35.66
2018-09-12T12:40:33.053Z,35.45
2018-09-12T12:41:33.048Z,35.47
2018-09-12T12:42:33.058Z,34.88
2018-09-12T12:43:33.062Z,34.47
2018-09-12T12:44:33.044Z,34.34
2018-09-12T12:45:33.035Z,34.21
2018-09-12T12:46:33.031Z,33.90
2018-09-12T12:47:33.039Z,33.66
2018-09-12T12:48:33.037Z,33.81
2018-09-12T12:49:33.020Z,33.53
2018-09-12T12:50:33.018Z,33.45
2018-09-12T12:51:33.018Z,33.47
2018-09-12T12:52:33.008Z,33.37
2018-09-12T12:53:32.999Z,33.50
2018-09-12T12:54:32.995Z,33.59
2018-09-12T12:55:32.993Z,33.65
2018-09-12T12:56:32.985Z,33.71
2018-09-12T12:57:32.987Z,33.66
2018-09-12T12:58:32.976Z,33.54
2018-09-12T12:59:32.972Z,33.63
2018-09-12T13:00:32.967Z,33.65
2018-09-12T13:01:32.962Z,33.56
2018-09-12T13:02:32.959Z,33.54
2018-09-12T13:03:32.953Z,33.71
2018-09-12T13:04:32.947Z,33.84
2018-09-12T13:05:33.008Z,33.81
2018-09-12T13:06:32.943Z,33.73
2018-09-12T13:07:32.932Z,33.63
2018-09-12T13:08:32.927Z,33.31
2018-09-12T13:09:32.926Z,33.15
2018-09-12T13:10:32.919Z,33.16
2018-09-12T13:11:32.912Z,32.92
2018-09-12T13:12:32.907Z,32.69
2018-09-12T13:13:32.906Z,32.55
2018-09-12T13:14:32.913Z,32.40
2018-09-12T13:15:32.891Z,32.32
2018-09-12T13:16:32.885Z,32.23
2018-09-12T13:17:32.881Z,32.10
2018-09-12T13:18:32.875Z,31.91
2018-09-12T13:19:32.869Z,31.68
2018-09-12T13:20:32.879Z,31.34
2018-09-12T13:21:32.942Z,31.41
2018-09-12T13:22:32.854Z,31.51
2018-09-12T13:23:32.846Z,31.47
2018-09-12T13:24:32.841Z,31.41
2018-09-12T13:25:32.835Z,31.36
2018-09-12T13:26:32.850Z,31.32
2018-09-12T13:27:32.833Z,31.56
2018-09-12T13:28:32.815Z,31.62
2018-09-12T13:29:32.813Z,31.63
2018-09-12T13:30:32.806Z,31.80
2018-09-12T13:31:32.799Z,31.68
2018-09-12T13:32:32.793Z,31.58
2018-09-12T13:33:32.788Z,31.65
2018-09-12T13:34:32.815Z,31.75
2018-09-12T13:35:32.776Z,31.85
2018-09-12T13:36:32.768Z,31.75
2018-09-12T13:37:32.763Z,31.78
2018-09-12T13:38:32.756Z,31.78
2018-09-12T13:39:32.756Z,31.80
2018-09-12T13:40:32.743Z,31.86
2018-09-12T13:41:32.739Z,31.78
2018-09-12T13:42:32.730Z,31.70
2018-09-12T13:43:32.726Z,31.32
2018-09-12T13:44:32.780Z,31.16
2018-09-12T13:45:32.733Z,31.19
2018-09-12T13:46:32.705Z,31.32
2018-09-12T13:47:32.707Z,31.47
2018-09-12T13:48:32.695Z,31.65
2018-09-12T13:49:32.686Z,31.80
2018-09-12T13:50:32.680Z,31.84
2018-09-12T13:51:32.674Z,31.99
2018-09-12T13:52:32.667Z,32.04
2018-09-12T13:53:32.662Z,32.10
2018-09-12T13:54:32.657Z,32.10
2018-09-12T13:55:32.651Z,32.04
2018-09-12T13:56:32.647Z,32.07
2018-09-12T13:57:32.637Z,32.07
2018-09-12T13:58:32.629Z,31.89
2018-09-12T13:59:32.619Z,31.86
2018-09-12T14:00:32.616Z,31.86
2018-09-12T14:01:32.609Z,31.76
2018-09-12T14:02:32.602Z,31.88
2018-09-12T14:03:32.597Z,31.88
2018-09-12T14:04:32.596Z,31.84
2018-09-12T14:05:32.583Z,31.76
2018-09-12T14:06:32.573Z,31.65
2018-09-12T14:07:32.567Z,31.54
2018-09-12T14:08:32.563Z,31.35
2018-09-12T14:09:32.554Z,31.19
2018-09-12T14:10:32.548Z,31.02
2018-09-12T14:11:32.544Z,31.04
2018-09-12T14:12:32.612Z,31.10
2018-09-12T14:13:32.532Z,31.12
2018-09-12T14:14:32.524Z,31.07
2018-09-12T14:15:32.516Z,31.12
2018-09-12T14:16:32.506Z,31.10
2018-09-12T14:17:32.506Z,31.10
2018-09-12T14:18:32.494Z,31.12
2018-09-12T14:19:32.549Z,30.95
2018-09-12T14:20:32.488Z,30.94
2018-09-12T14:21:32.477Z,30.92
2018-09-12T14:22:32.467Z,30.95
2018-09-12T14:23:32.459Z,30.89
2018-09-12T14:24:32.454Z,30.86
2018-09-12T14:25:32.448Z,30.83
2018-09-12T14:26:32.440Z,30.82
2018-09-12T14:27:32.433Z,30.79
2018-09-12T14:28:32.424Z,30.82
2018-09-12T14:29:32.420Z,30.88
2018-09-12T14:30:32.411Z,30.83
2018-09-12T14:31:32.404Z,30.75
2018-09-12T14:32:32.398Z,30.91
2018-09-12T14:33:32.388Z,30.99
2018-09-12T14:34:32.386Z,30.98
2018-09-12T14:35:32.378Z,30.80
2018-09-12T14:36:32.367Z,30.84
2018-09-12T14:37:32.362Z,30.89
2018-09-12T14:38:32.356Z,30.77
2018-09-12T14:39:32.416Z,30.65
2018-09-12T14:40:32.339Z,30.57
2018-09-12T14:41:32.333Z,30.57
2018-09-12T14:42:32.330Z,30.43
2018-09-12T14:43:32.324Z,30.46
2018-09-12T14:44:32.314Z,30.47
2018-09-12T14:45:32.309Z,30.55
2018-09-12T14:46:32.297Z,30.55
2018-09-12T14:47:32.293Z,30.55
2018-09-12T14:48:32.282Z,30.54
2018-09-12T14:49:32.280Z,30.47
2018-09-12T14:50:32.270Z,30.29
2018-09-12T14:51:32.265Z,30.26
2018-09-12T14:52:32.253Z,30.26
2018-09-12T14:53:32.249Z,30.24
2018-09-12T14:54:32.241Z,30.13
2018-09-12T14:55:32.235Z,30.07
2018-09-12T14:56:32.226Z,30.08
2018-09-12T14:57:32.294Z,30.13
2018-09-12T14:58:32.212Z,30.04
2018-09-12T14:59:32.206Z,29.71
2018-09-12T15:00:32.198Z,29.49
2018-09-12T15:01:32.189Z,29.46
2018-09-12T15:02:32.188Z,29.46
2018-09-12T15:03:32.177Z,29.33
2018-09-12T15:04:32.181Z,29.26
2018-09-12T15:05:32.164Z,29.09
2018-09-12T15:06:32.154Z,29.12
2018-09-12T15:07:32.155Z,29.06
2018-09-12T15:08:32.140Z,29.02
2018-09-12T15:09:32.131Z,28.98
2018-09-12T15:10:32.179Z,28.90
2018-09-12T15:11:32.120Z,28.86
2018-09-12T15:12:32.112Z,28.76
2018-09-12T15:13:32.102Z,28.61
2018-09-12T15:14:32.096Z,28.52
2018-09-12T15:15:32.089Z,28.52
2018-09-12T15:16:32.130Z,28.48
2018-09-12T15:17:32.071Z,28.41
2018-09-12T15:18:32.066Z,28.36
2018-09-12T15:19:32.057Z,28.36
2018-09-12T15:20:32.051Z,28.24
2018-09-12T15:21:32.046Z,28.36
2018-09-12T15:22:32.040Z,28.24
2018-09-12T15:23:32.026Z,28.06
2018-09-12T15:24:32.019Z,28.06
2018-09-12T15:25:32.010Z,27.90
2018-09-12T15:26:32.005Z,27.87
2018-09-12T15:27:31.997Z,27.72
2018-09-12T15:28:31.987Z,27.44
2018-09-12T15:29:31.979Z,27.37
2018-09-12T15:30:31.971Z,27.37
2018-09-12T15:31:31.975Z,27.28
2018-09-12T15:32:32.018Z,27.28
2018-09-12T15:33:31.948Z,27.28
2018-09-12T15:34:31.939Z,27.18
2018-09-12T15:35:32.030Z,27.12
2018-09-12T15:36:31.928Z,27.02
2018-09-12T15:37:31.921Z,27.03
2018-09-12T15:38:32.007Z,26.99
2018-09-12T15:39:32.020Z,26.97
2018-09-12T15:40:32.356Z,26.82
2018-09-12T15:41:32.097Z,26.89
2018-09-12T15:46:31.841Z,26.40
2018-09-12T15:47:31.926Z,26.30
2018-09-12T15:48:32.034Z,26.25
2018-09-12T15:51:14.338Z,26.10
2018-09-12T15:52:14.329Z,26.20
2018-09-12T15:53:14.326Z,26.10
2018-09-12T15:54:14.313Z,26.09
2018-09-12T15:55:14.307Z,26.15
2018-09-12T15:56:14.304Z,26.12
2018-09-12T15:57:14.288Z,26.06
2018-09-12T15:58:14.347Z,25.97
2018-09-12T15:59:14.270Z,25.83
2018-09-12T16:00:14.267Z,25.85
2018-09-12T16:01:14.254Z,25.75
2018-09-12T16:02:14.242Z,25.69
2018-09-12T16:03:14.236Z,25.57
2018-09-12T16:04:14.226Z,25.52
2018-09-12T16:05:14.216Z,25.42
2018-09-12T16:06:14.213Z,25.32
2018-09-12T16:07:14.197Z,25.33
2018-09-12T16:08:14.190Z,25.28
2018-09-12T16:09:14.180Z,25.28
2018-09-12T16:10:14.171Z,25.20
2018-09-12T16:11:14.161Z,25.05
2018-09-12T16:12:14.151Z,25.10
2018-09-12T16:13:14.145Z,24.95
2018-09-12T16:14:14.135Z,24.96
2018-09-12T16:15:14.176Z,24.98
2018-09-12T16:16:14.116Z,24.90
2018-09-12T16:17:14.107Z,24.88
2018-09-12T16:18:14.101Z,24.87
2018-09-12T16:19:14.085Z,24.83
2018-09-12T16:20:14.079Z,24.87
2018-09-12T16:21:14.072Z,24.84
2018-09-12T16:22:14.063Z,24.81
2018-09-12T16:23:14.069Z,24.76
2018-09-12T16:24:14.037Z,24.77
2018-09-12T16:25:14.033Z,24.77
2018-09-12T16:26:14.022Z,24.73
2018-09-12T16:27:14.012Z,24.76
2018-09-12T16:28:14.012Z,24.71
2018-09-12T16:29:13.993Z,24.65
2018-09-12T16:30:13.983Z,24.55
2018-09-12T16:31:13.973Z,24.60
2018-09-12T16:32:13.962Z,24.62
2018-09-12T16:33:13.951Z,24.57
2018-09-12T16:34:13.941Z,24.52
2018-09-12T16:35:13.932Z,24.31
2018-09-12T16:36:13.919Z,24.28
2018-09-12T16:37:13.913Z,24.24
2018-09-12T16:38:13.907Z,24.09
2018-09-12T16:39:13.893Z,23.94
2018-09-12T16:40:13.901Z,23.88
2018-09-12T16:41:13.868Z,23.83
2018-09-12T16:42:13.859Z,23.78
2018-09-12T16:43:13.855Z,23.76
2018-09-12T16:44:13.843Z,23.65
2018-09-12T16:45:13.840Z,23.54
2018-09-12T16:46:13.821Z,23.47
2018-09-12T16:47:13.808Z,23.47
2018-09-12T16:48:13.800Z,23.42
2018-09-12T16:49:13.787Z,23.42
2018-09-12T16:50:13.776Z,23.39
2018-09-12T16:51:13.773Z,23.42
2018-09-12T16:52:13.757Z,23.39
2018-09-12T16:53:13.746Z,23.31
2018-09-12T16:54:13.734Z,23.33
2018-09-12T16:55:13.727Z,23.20
2018-09-12T16:56:13.732Z,23.19
2018-09-12T16:57:13.704Z,23.10
2018-09-12T16:58:13.691Z,23.05
2018-09-12T16:59:13.681Z,23.04
2018-09-12T17:00:13.671Z,22.97
2018-09-12T17:01:13.658Z,22.94
2018-09-12T17:02:13.657Z,22.79
2018-09-12T17:03:13.642Z,22.82
2018-09-12T17:04:13.626Z,22.82
2018-09-12T17:05:13.617Z,22.75
2018-09-12T17:06:13.608Z,22.73
2018-09-12T17:07:13.595Z,22.65
2018-09-12T17:08:13.583Z,22.68
2018-09-12T17:09:13.572Z,22.55
2018-09-12T17:10:13.562Z,22.49
2018-09-12T17:11:13.551Z,22.47
2018-09-12T17:12:13.543Z,22.33
2018-09-12T17:13:13.529Z,22.21
2018-09-12T17:14:13.545Z,22.31
2018-09-12T17:15:13.506Z,22.25
2018-09-12T17:16:13.496Z,22.28
2018-09-12T17:17:13.484Z,22.25
2018-09-12T17:18:13.482Z,22.24
2018-09-12T17:19:13.465Z,22.18
2018-09-12T17:20:13.525Z,22.10
2018-09-12T17:21:13.437Z,22.00
2018-09-12T17:22:13.431Z,21.94
2018-09-12T17:23:13.415Z,21.90
2018-09-12T17:24:13.405Z,21.88
2018-09-12T17:25:13.395Z,21.84
2018-09-12T17:26:13.382Z,21.74
2018-09-12T17:27:13.369Z,21.82
2018-09-12T17:28:13.358Z,21.62
2018-09-12T17:29:13.351Z,21.68
2018-09-12T17:30:13.336Z,21.67
2018-09-12T17:31:13.325Z,21.56
2018-09-12T17:32:13.354Z,21.61
2018-09-12T17:33:13.300Z,21.52
2018-09-12T17:34:13.290Z,21.53
2018-09-12T17:35:13.282Z,21.49
2018-09-12T17:36:13.267Z,21.42
2018-09-12T17:37:13.267Z,21.35
2018-09-12T17:38:13.241Z,21.35
2018-09-12T17:39:13.229Z,21.40